Time;durP1;ratioP1;P1;durP2;ratioP2;P2;SDS_P1;SDS_P2;PMS_P1;PMS_P2;Temp;Humidity;BMP_temperature;BMP_pressure;BME280_temperature;BME280_humidity;BME280_pressure;Samples;Min_cycle;Max_cycle;Signal;HPM_P1;HPM_P2
2022/03/14 00:03:17;;;;;;;;;;;8.40;29.00;;;6.70;30.30;101944.63;8330972;28;20015;-81
2022/03/14 00:07:41;;;;;;;;;;;8.40;29.00;;;6.45;30.08;101923.47;8328923;28;20076;-81
2022/03/14 00:12:04;;;;;;;;;;;8.20;29.00;;;6.42;30.49;101937.34;8322094;28;20016;-82
2022/03/14 00:16:27;;;;;;;;;;;8.10;29.00;;;6.29;30.08;101933.28;8322852;28;20063;-81
2022/03/14 00:20:49;;;;;;;;;;;8.00;29.10;;;6.19;30.30;101932.59;8322793;28;20004;-81
2022/03/14 00:25:11;;;;;;;;;;;7.90;29.10;;;6.28;30.25;101948.88;8310549;28;20011;-81
2022/03/14 00:29:32;;;;;;;;;;;7.90;29.10;;;6.15;30.50;101938.69;8329752;28;20016;-81
2022/03/14 00:33:54;;;;;;;;;;;7.80;29.20;;;6.04;30.65;101935.44;8329820;28;20021;-81
2022/03/14 00:38:16;;;;;;;;;;;7.70;29.20;;;5.94;30.41;101926.09;8329755;28;19927;-81
2022/03/14 00:42:39;;;;;;;;;;;7.70;29.20;;;5.94;30.05;101939.06;8329405;28;20004;-81
2022/03/14 00:47:01;;;;;;;;;;;7.60;29.20;;;5.67;30.72;101920.47;8322032;28;19927;-82
2022/03/14 00:51:22;;;;;;;;;;;7.50;29.40;;;5.70;30.62;101938.56;8328888;28;20326;-82
2022/03/14 00:55:44;;;;;;;;;;;7.40;29.30;;;5.61;30.42;101925.72;8328922;28;20445;-81
2022/03/14 01:00:08;;;;;;;;;;;7.30;29.30;;;5.60;30.83;101939.56;8329381;28;20450;-81
2022/03/14 01:04:29;;;;;;;;;;;7.30;29.30;;;5.58;30.55;101917.16;8325466;28;20348;-81
2022/03/14 01:08:51;;;;;;;;;;;7.30;29.40;;;5.64;30.74;101933.44;8320292;28;20059;-82
2022/03/14 01:13:13;;;;;;;;;;;7.00;29.40;;;5.55;30.86;101926.66;8329082;28;20012;-81
2022/03/14 01:17:34;;;;;;;;;;;7.10;29.40;;;5.31;30.66;101883.84;8327347;28;20004;-82
2022/03/14 01:21:56;;;;;;;;;;;7.20;29.50;;;5.55;30.74;101918.91;8327959;28;20015;-81
2022/03/14 01:26:17;;;;;;;;;;;7.20;29.50;;;5.52;30.91;101936.22;8328858;28;19925;-80
2022/03/14 01:30:43;;;;;;;;;;;7.20;29.40;;;5.50;30.61;101935.38;8316477;28;20012;-81
2022/03/14 01:35:05;;;;;;;;;;;7.10;29.50;;;5.48;30.80;101927.66;8328004;28;20004;-80
2022/03/14 01:39:26;;;;;;;;;;;7.10;29.50;;;5.35;30.64;101915.75;8320776;28;20014;-80
2022/03/14 01:43:49;;;;;;;;;;;7.00;29.40;;;5.46;31.07;101933.75;8328426;28;20029;-80
2022/03/14 01:48:11;;;;;;;;;;;7.10;29.50;;;5.35;30.88;101931.31;8316162;28;20011;-80
2022/03/14 01:52:34;;;;;;;;;;;7.00;29.40;;;5.20;30.85;101911.63;8322011;28;20003;-80
2022/03/14 01:56:57;;;;;;;;;;;7.10;29.50;;;4.99;30.77;101897.25;8334730;28;20000;-81
2022/03/14 02:01:20;;;;;;;;;;;7.00;29.50;;;5.25;30.86;101956.47;8334771;28;19920;-80
2022/03/14 02:05:45;;;;;;;;;;;7.00;29.50;;;5.07;30.72;101921.28;8326259;28;19917;-81
2022/03/14 02:10:08;;;;;;;;;;;6.70;29.50;;;4.95;30.98;101912.84;8331311;28;19997;-81
2022/03/14 02:14:30;;;;;;;;;;;6.90;29.60;;;4.92;30.90;101916.34;8326682;28;20008;-80
2022/03/14 02:18:51;;;;;;;;;;;6.80;29.60;;;4.86;30.99;101927.63;8325763;28;20385;-81
2022/03/14 02:23:13;;;;;;;;;;;6.70;29.60;;;4.81;31.06;101925.97;8327203;28;20393;-80
2022/03/14 02:27:35;;;;;;;;;;;6.70;29.60;;;4.87;31.07;101933.66;8326706;28;20599;-81
2022/03/14 02:31:57;;;;;;;;;;;6.60;29.60;;;4.77;31.05;101912.19;8333821;28;20004;-80
2022/03/14 02:36:18;;;;;;;;;;;6.40;29.60;;;4.68;31.11;101907.13;8324374;28;20008;-81
2022/03/14 02:40:46;;;;;;;;;;;6.60;29.60;;;4.73;31.11;101915.69;8324387;28;20020;-81
2022/03/14 02:45:09;;;;;;;;;;;6.50;29.60;;;4.70;31.27;101920.91;8327117;28;20382;-81
2022/03/14 02:49:31;;;;;;;;;;;6.50;29.70;;;4.70;31.12;101923.50;8324299;28;20011;-81
2022/03/14 02:53:55;;;;;;;;;;;6.50;29.70;;;4.57;31.27;101912.44;8327872;28;20020;-81
2022/03/14 02:58:16;;;;;;;;;;;6.50;29.70;;;4.58;31.33;101911.53;8332062;28;20015;-81
2022/03/14 03:02:38;;;;;;;;;;;6.40;29.80;;;4.69;31.31;101934.72;8313513;28;20004;-81
2022/03/14 03:06:59;;;;;;;;;;;6.40;29.70;;;4.54;31.10;101919.38;8304391;28;19996;-81
2022/03/14 03:11:21;;;;;;;;;;;6.40;29.80;;;4.60;31.14;101935.66;8329811;28;20011;-81
2022/03/14 03:15:43;;;;;;;;;;;6.40;29.80;;;4.53;30.86;101941.78;8332061;28;19992;-81
2022/03/14 03:20:05;;;;;;;;;;;6.50;29.80;;;4.51;31.65;101948.72;8326165;28;20004;-81
2022/03/14 03:24:27;;;;;;;;;;;6.30;29.80;;;4.52;31.31;101949.56;8331765;28;20011;-82
2022/03/14 03:28:48;;;;;;;;;;;6.60;29.90;;;4.46;31.23;101954.81;8321258;28;20015;-81
2022/03/14 03:33:10;;;;;;;;;;;6.30;29.80;;;4.22;31.40;101929.16;8329776;28;20020;-81
2022/03/14 03:37:31;;;;;;;;;;;6.20;29.80;;;4.28;31.38;101942.91;8319676;28;19923;-81
2022/03/14 03:41:53;;;;;;;;;;;6.10;29.80;;;4.31;31.23;101959.22;8331338;28;20327;-81
2022/03/14 03:46:15;;;;;;;;;;;6.10;29.80;;;4.31;31.50;101964.41;8330967;28;19917;-81
2022/03/14 03:50:36;;;;;;;;;;;6.10;29.80;;;4.27;31.29;101957.56;8328019;28;19928;-81
2022/03/14 03:54:58;;;;;;;;;;;5.90;29.80;;;4.19;31.43;101954.19;8314701;28;19924;-81
2022/03/14 03:59:20;;;;;;;;;;;6.10;29.80;;;4.02;31.40;101941.38;8324527;28;20000;-81
2022/03/14 04:03:42;;;;;;;;;;;6.10;30.00;;;4.17;32.00;101986.94;8330639;28;19999;-80
2022/03/14 04:08:04;;;;;;;;;;;6.10;29.90;;;4.14;31.53;101976.63;8315224;28;20289;-80
2022/03/14 04:12:26;;;;;;;;;;;6.00;29.90;;;4.10;31.62;101969.75;8322886;28;20016;-81
2022/03/14 04:16:48;;;;;;;;;;;5.90;29.80;;;3.97;31.69;101953.53;8337791;28;20004;-81
2022/03/14 04:21:12;;;;;;;;;;;5.90;29.90;;;3.90;31.23;101954.44;8321020;28;19996;-81
2022/03/14 04:25:34;;;;;;;;;;;5.90;29.90;;;3.91;31.53;101962.16;8327067;28;20000;-81
2022/03/14 04:30:01;;;;;;;;;;;5.80;29.80;;;3.88;31.59;101959.59;8322682;28;20008;-81
2022/03/14 04:34:24;;;;;;;;;;;5.80;29.90;;;3.87;31.73;101970.81;8316082;28;19992;-81
2022/03/14 04:38:46;;;;;;;;;;;5.70;29.90;;;3.85;31.45;101972.53;8329711;28;20015;-81
2022/03/14 04:43:08;;;;;;;;;;;5.70;29.90;;;3.76;31.54;101980.38;8323229;28;20043;-81
2022/03/14 04:47:30;;;;;;;;;;;5.60;30.10;;;3.70;32.02;101982.97;8329960;28;19921;-81
2022/03/14 04:51:54;;;;;;;;;;;5.70;30.00;;;3.62;31.74;101985.63;8329342;28;20008;-81
2022/03/14 04:56:15;;;;;;;;;;;5.50;30.00;;;3.53;31.71;101977.91;8315324;28;20012;-81
2022/03/14 05:00:37;;;;;;;;;;;5.40;30.00;;;3.55;31.72;101978.78;8327856;28;19996;-81
2022/03/14 05:05:00;;;;;;;;;;;5.30;30.00;;;3.39;31.92;101962.50;8320888;28;20362;-81
2022/03/14 05:09:21;;;;;;;;;;;5.40;30.00;;;3.49;31.74;101992.56;8322875;28;19920;-81
2022/03/14 05:13:43;;;;;;;;;;;5.40;30.00;;;3.29;31.70;101968.56;8326972;28;20358;-81
2022/03/14 05:18:04;;;;;;;;;;;5.30;30.00;;;3.35;31.71;101983.16;8328191;28;20419;-82
2022/03/14 05:22:26;;;;;;;;;;;5.30;30.10;;;3.23;31.96;101973.78;8318777;28;20383;-82
2022/03/14 05:26:47;;;;;;;;;;;5.30;30.10;;;3.17;31.84;101978.97;8326644;28;20328;-82
2022/03/14 05:31:09;;;;;;;;;;;5.20;30.00;;;3.32;32.10;102013.31;8321586;28;20011;-82
2022/03/14 05:35:33;;;;;;;;;;;5.20;30.00;;;3.25;31.54;102011.63;8320626;28;20332;-82
2022/03/14 05:39:56;;;;;;;;;;;5.10;30.00;;;3.00;32.08;101972.16;8328699;28;20003;-82
2022/03/14 05:44:17;;;;;;;;;;;4.90;30.00;;;3.17;31.84;101999.63;8316594;28;20024;-81
2022/03/14 05:48:39;;;;;;;;;;;5.00;30.30;;;3.03;31.91;101987.63;8312102;28;20298;-82
2022/03/14 05:53:01;;;;;;;;;;;5.10;30.10;;;3.07;31.94;102003.94;8316393;28;20293;-82
2022/03/14 05:57:22;;;;;;;;;;;5.00;30.20;;;3.13;32.08;102018.53;8324737;28;20374;-82
2022/03/14 06:01:44;;;;;;;;;;;5.00;30.20;;;3.11;32.10;102021.16;8318425;28;20016;-82
2022/03/14 06:06:07;;;;;;;;;;;5.00;30.50;;;3.12;32.25;102025.44;8308253;28;19917;-81
2022/03/14 06:10:32;;;;;;;;;;;5.00;30.80;;;3.09;32.29;102026.28;8301032;28;20460;-82
2022/03/14 06:14:55;;;;;;;;;;;4.90;30.40;;;3.12;32.46;102029.75;8303842;28;19924;-81
2022/03/14 06:19:17;;;;;;;;;;;4.90;30.70;;;3.18;32.14;102035.72;8326627;28;19927;-83
2022/03/14 06:23:39;;;;;;;;;;;5.10;30.80;;;3.13;32.52;102026.28;8323589;28;20118;-82
2022/03/14 06:28:01;;;;;;;;;;;5.00;30.50;;;3.18;32.12;102021.97;8311497;28;19924;-82
2022/03/14 06:32:23;;;;;;;;;;;5.10;30.70;;;3.19;32.13;102014.22;8323003;28;19996;-84
2022/03/14 06:36:45;;;;;;;;;;;5.20;30.70;;;3.36;32.44;102033.97;8307338;28;19917;-83
2022/03/14 06:41:08;;;;;;;;;;;5.20;30.80;;;3.39;32.26;102024.47;8329780;28;20003;-84
2022/03/14 06:45:31;;;;;;;;;;;5.10;30.70;;;3.33;32.35;102011.59;8305427;28;19924;-84
2022/03/14 06:49:53;;;;;;;;;;;5.40;30.70;;;3.58;32.38;102037.28;8330586;28;19935;-83
2022/03/14 06:54:14;;;;;;;;;;;5.40;30.70;;;3.64;32.49;102037.25;8328588;28;20003;-83
2022/03/14 06:58:36;;;;;;;;;;;5.50;30.90;;;3.81;32.48;102052.66;8304697;28;20019;-83
2022/03/14 07:03:01;;;;;;;;;;;5.70;30.80;;;3.86;32.56;102041.47;8314948;28;20016;-83
2022/03/14 07:07:23;;;;;;;;;;;5.80;31.20;;;4.08;32.57;102056.78;8335615;28;19920;-83
2022/03/14 07:11:44;;;;;;;;;;;5.90;30.90;;;4.22;32.58;102053.25;8332399;28;20465;-82
2022/03/14 07:16:06;;;;;;;;;;;6.10;31.10;;;4.33;32.26;102045.41;8335195;28;19996;-82
2022/03/14 07:20:28;;;;;;;;;;;6.30;31.00;;;4.59;32.72;102057.25;8328131;28;19928;-83
2022/03/14 07:24:49;;;;;;;;;;;6.50;30.90;;;4.83;32.30;102072.59;8324832;28;19923;-81
2022/03/14 07:29:11;;;;;;;;;;;6.70;31.00;;;4.82;32.46;102041.53;8323016;28;19923;-79
2022/03/14 07:33:33;;;;;;;;;;;6.80;30.70;;;5.06;32.74;102061.97;8364858;28;19921;-81
2022/03/14 07:37:54;;;;;;;;;;;7.00;30.80;;;5.26;32.41;102066.91;8371982;28;20015;-85
2022/03/14 07:42:16;;;;;;;;;;;7.00;30.60;;;5.30;32.46;102054.81;8352005;28;19924;-81
2022/03/14 07:46:38;;;;;;;;;;;7.30;30.60;;;4.97;32.75;101984.44;8360506;28;19924;-84
2022/03/14 07:50:59;;;;;;;;;;;7.40;30.50;;;5.68;32.33;102075.06;8360196;28;20277;-83
2022/03/14 07:55:21;;;;;;;;;;;7.60;30.60;;;5.73;32.34;102062.91;8359757;28;19927;-83
2022/03/14 07:59:46;;;;;;;;;;;7.70;30.50;;;6.00;32.46;102080.72;8356047;28;20346;-83
2022/03/14 08:04:08;;;;;;;;;;;8.20;30.70;;;6.17;32.09;102077.00;8372513;28;19923;-83
2022/03/14 08:08:32;;;;;;;;;;;8.00;30.50;;;6.35;32.69;102062.03;8363335;28;19917;-83
2022/03/14 08:12:55;;;;;;;;;;;8.20;30.50;;;6.64;32.40;102064.13;8369371;28;20496;-82
2022/03/14 08:17:18;;;;;;;;;;;8.50;30.50;;;6.79;32.73;102048.28;8362142;28;20039;-83
2022/03/14 08:21:40;;;;;;;;;;;8.60;30.40;;;7.20;32.76;102083.00;8363393;28;19934;-83
2022/03/14 08:26:02;;;;;;;;;;;8.80;30.40;;;7.49;32.61;102076.41;8361345;28;19916;-83
2022/03/14 08:30:25;;;;;;;;;;;9.20;30.50;;;7.79;32.63;102074.88;8367610;28;19931;-82
2022/03/14 08:34:46;;;;;;;;;;;9.60;30.60;;;8.09;32.57;102072.47;8369374;28;20007;-83
2022/03/14 08:39:09;;;;;;;;;;;9.80;30.00;;;8.28;32.84;102049.47;8359473;28;20007;-84
2022/03/14 08:43:30;;;;;;;;;;;10.10;30.30;;;8.57;32.74;102038.38;8371003;28;19923;-77
2022/03/14 08:47:52;;;;;;;;;;;10.50;29.60;;;9.00;32.11;102068.50;8359620;28;19923;-82
2022/03/14 08:52:14;;;;;;;;;;;10.80;29.50;;;9.02;32.43;102020.69;8363567;28;20011;-82
2022/03/14 08:56:37;;;;;;;;;;;11.00;29.00;;;9.50;32.05;102068.84;8336607;28;19924;-83
2022/03/14 09:00:59;;;;;;;;;;;11.30;28.80;;;9.70;32.24;102058.69;8329143;28;20337;-83
2022/03/14 09:05:21;;;;;;;;;;;11.50;29.50;;;9.96;32.07;102070.06;8323597;28;20368;-82
2022/03/14 09:09:43;;;;;;;;;;;11.80;29.60;;;10.20;32.32;102071.03;8337720;28;19920;-82
2022/03/14 09:14:04;;;;;;;;;;;11.90;29.50;;;10.44;31.88;102073.81;8337977;28;20431;-81
2022/03/14 09:18:29;;;;;;;;;;;12.30;29.20;;;10.28;31.87;102011.63;8339057;28;19925;-82
2022/03/14 09:22:53;;;;;;;;;;;12.50;29.10;;;10.65;32.26;102040.91;8313088;28;21516;-82
2022/03/14 09:27:14;;;;;;;;;;;12.70;27.90;;;10.83;31.71;102042.88;8337331;28;19925;-82
2022/03/14 09:31:36;;;;;;;;;;;12.90;28.60;;;10.97;31.69;102038.00;8338468;28;19935;-82
2022/03/14 09:35:58;;;;;;;;;;;13.00;27.30;;;11.21;31.30;102067.66;8333941;28;19925;-81
2022/03/14 09:40:21;;;;;;;;;;;13.00;27.30;;;11.33;31.30;102071.56;8338578;28;19931;-81
2022/03/14 09:44:43;;;;;;;;;;;13.20;27.40;;;11.36;31.44;102050.53;8336151;28;20413;-82
2022/03/14 09:49:08;;;;;;;;;;;13.10;28.10;;;11.43;30.90;102027.63;8324487;28;20305;-82
2022/03/14 09:53:32;;;;;;;;;;;13.30;28.10;;;11.60;31.28;102021.75;8336465;28;19938;-82
2022/03/14 09:57:55;;;;;;;;;;;13.60;28.70;;;11.99;31.15;102055.13;8337924;28;19921;-81
2022/03/14 10:02:16;;;;;;;;;;;13.60;26.90;;;12.10;31.59;102050.34;8337484;28;19921;-81
2022/03/14 10:06:40;;;;;;;;;;;13.90;28.10;;;12.29;31.14;102038.19;8336987;28;19935;-81
2022/03/14 10:11:01;;;;;;;;;;;14.20;28.40;;;12.23;31.40;102016.63;8340380;28;19923;-82
2022/03/14 10:15:25;;;;;;;;;;;14.30;28.70;;;12.38;31.14;102021.25;8359209;28;19917;-81
2022/03/14 10:19:58;;;;;;;;;;;14.40;28.70;;;12.61;31.20;102036.00;8371027;28;20009;-81
2022/03/14 10:24:23;;;;;;;;;;;14.60;27.80;;;12.93;31.15;102070.44;8364901;28;20019;-81
2022/03/14 10:28:48;;;;;;;;;;;14.70;28.10;;;12.92;31.21;102032.03;8362459;28;19932;-81
2022/03/14 10:33:16;;;;;;;;;;;14.90;27.80;;;13.19;30.96;102062.28;8362927;28;20019;-81
2022/03/14 10:37:57;;;;;;;;;;;15.00;27.90;;;13.21;31.05;102046.50;8370329;28;19989;-81
2022/03/14 10:42:19;;;;;;;;;;;15.10;28.50;;;13.51;31.15;102073.13;8364790;28;19995;-81
2022/03/14 10:46:44;;;;;;;;;;;15.30;28.10;;;13.64;31.02;102063.78;8369028;28;19921;-81
2022/03/14 10:51:10;;;;;;;;;;;15.50;28.60;;;13.89;30.91;102078.38;8339413;28;19924;-82
2022/03/14 10:55:38;;;;;;;;;;;15.70;28.50;;;14.10;31.10;102071.25;8343296;28;19932;-82
2022/03/14 10:59:59;;;;;;;;;;;15.90;28.40;;;14.01;30.86;102030.50;8341109;28;20490;-81
2022/03/14 11:04:26;;;;;;;;;;;16.00;27.90;;;14.27;31.09;102052.88;8344070;28;19925;-82
2022/03/14 11:08:48;;;;;;;;;;;16.10;27.80;;;14.46;31.03;102063.31;8352836;28;20410;-81
2022/03/14 11:13:12;;;;;;;;;;;16.30;28.40;;;14.60;30.71;102060.88;8367077;28;19931;-81
2022/03/14 11:17:35;;;;;;;;;;;16.40;26.60;;;14.74;30.89;102072.47;8368722;28;19920;-81
2022/03/14 11:21:57;;;;;;;;;;;16.50;27.50;;;14.76;30.78;102060.09;8342605;28;19923;-81
2022/03/14 11:26:23;;;;;;;;;;;16.60;28.10;;;14.72;30.71;102034.91;8348568;28;19920;-81
2022/03/14 11:30:50;;;;;;;;;;;16.70;28.20;;;14.93;30.70;102046.94;8365502;28;19916;-81
2022/03/14 11:35:11;;;;;;;;;;;16.70;27.20;;;14.56;30.60;101963.84;8366141;28;19995;-84
2022/03/14 11:39:33;;;;;;;;;;;16.90;28.30;;;15.23;30.41;102075.19;8367631;28;19920;-81
2022/03/14 11:43:55;;;;;;;;;;;17.00;26.40;;;15.21;29.79;102071.78;8367511;28;19917;-81
2022/03/14 11:48:17;;;;;;;;;;;17.00;26.60;;;15.21;30.14;102077.06;8365898;28;20196;-81
2022/03/14 11:52:41;;;;;;;;;;;17.00;25.60;;;15.13;30.13;102079.22;8361196;28;19996;-82
2022/03/14 11:57:02;;;;;;;;;;;16.90;27.10;;;15.14;29.90;102075.66;8351270;28;19923;-80
2022/03/14 12:01:27;;;;;;;;;;;16.90;26.90;;;15.21;30.14;102077.91;8366490;28;19992;-81
2022/03/14 12:05:49;;;;;;;;;;;16.80;27.60;;;15.13;30.16;102037.97;8367392;28;20019;-81
2022/03/14 12:10:27;;;;;;;;;;;16.90;27.30;;;15.30;29.87;102059.91;8360599;28;20015;-81
2022/03/14 12:14:56;;;;;;;;;;;17.00;28.60;;;15.29;30.10;102040.66;8367515;28;20003;-81
2022/03/14 12:19:30;;;;;;;;;;;17.10;27.90;;;15.54;29.91;102060.38;8366182;28;20433;-81
2022/03/14 12:23:53;;;;;;;;;;;17.20;27.50;;;15.66;29.85;102075.47;8371810;28;20012;-81
2022/03/14 12:28:31;;;;;;;;;;;17.30;28.10;;;15.44;29.62;102025.78;8353325;28;19921;-82
2022/03/14 12:32:53;;;;;;;;;;;17.30;28.00;;;15.75;29.98;102068.91;8358158;28;19917;-80
2022/03/14 12:37:30;;;;;;;;;;;17.40;28.10;;;15.77;29.65;102069.66;8359499;28;19929;-81
2022/03/14 12:41:52;;;;;;;;;;;17.40;28.20;;;15.83;29.62;102080.72;8350943;28;20094;-79
2022/03/14 12:46:14;;;;;;;;;;;17.50;27.70;;;15.77;29.70;102069.66;8359501;28;20023;-81
2022/03/14 12:50:51;;;;;;;;;;;17.50;28.20;;;15.75;29.98;102061.84;8364437;28;19917;-83
2022/03/14 12:55:19;;;;;;;;;;;17.50;26.90;;;15.77;30.03;102049.47;8358364;28;19921;-81
2022/03/14 12:59:48;;;;;;;;;;;17.50;27.60;;;15.76;29.68;102031.09;8367175;28;20011;-81
2022/03/14 13:04:16;;;;;;;;;;;17.60;28.10;;;16.09;29.67;102068.72;8345851;28;20007;-87
2022/03/14 13:08:49;;;;;;;;;;;17.70;28.20;;;16.19;29.83;102060.28;8362630;28;19920;-80
2022/03/14 13:13:12;;;;;;;;;;;17.80;27.80;;;16.21;29.81;102069.78;8351920;28;20012;-80
2022/03/14 13:17:34;;;;;;;;;;;17.80;27.70;;;16.32;29.66;102080.56;8368286;28;20015;-81
2022/03/14 13:21:56;;;;;;;;;;;17.90;27.70;;;16.29;29.79;102078.09;8359136;28;20270;-79
2022/03/14 13:26:20;;;;;;;;;;;18.00;27.80;;;16.33;29.75;102078.78;8360530;28;19923;-79
2022/03/14 13:30:43;;;;;;;;;;;18.00;28.20;;;16.28;29.78;102081.69;8360522;28;20217;-79
2022/03/14 13:35:07;;;;;;;;;;;17.90;27.70;;;16.18;29.80;102077.88;8350450;28;19925;-79
2022/03/14 13:39:28;;;;;;;;;;;17.90;28.30;;;16.18;29.48;102085.78;8337538;28;19927;-79
2022/03/14 13:43:53;;;;;;;;;;;18.00;27.80;;;16.23;29.35;102089.00;8340971;28;19931;-79
2022/03/14 13:48:21;;;;;;;;;;;17.80;28.30;;;16.18;29.60;102084.94;8339863;28;19935;-79
2022/03/14 13:52:50;;;;;;;;;;;17.80;28.10;;;16.27;29.75;102093.16;8343701;28;20214;-79
2022/03/14 13:57:14;;;;;;;;;;;17.80;27.90;;;16.31;29.66;102102.59;8345794;28;19925;-79
2022/03/14 14:01:40;;;;;;;;;;;17.80;28.30;;;16.26;29.68;102090.63;8344072;28;19920;-79
2022/03/14 14:06:15;;;;;;;;;;;17.90;28.50;;;16.20;29.67;102102.34;8346844;28;19920;-79
2022/03/14 14:10:37;;;;;;;;;;;17.90;28.40;;;16.14;29.50;102093.00;8344172;28;19931;-79
2022/03/14 14:15:07;;;;;;;;;;;17.60;28.30;;;16.13;29.45;102101.00;8346547;28;20478;-79
2022/03/14 14:19:28;;;;;;;;;;;17.80;28.50;;;16.10;29.36;102102.03;8344158;28;19925;-79
2022/03/14 14:23:52;;;;;;;;;;;17.60;28.10;;;16.11;29.44;102105.50;8347962;28;19925;-79
2022/03/14 14:28:20;;;;;;;;;;;17.70;28.50;;;15.94;29.31;102077.47;8345349;28;19929;-79
2022/03/14 14:32:41;;;;;;;;;;;17.70;28.10;;;16.07;29.59;102109.28;8344314;28;19921;-79
2022/03/14 14:37:03;;;;;;;;;;;17.70;28.60;;;16.12;29.35;102117.75;8346943;28;20428;-79
2022/03/14 14:41:24;;;;;;;;;;;17.60;28.50;;;15.87;29.46;102098.03;8352421;28;20435;-79
2022/03/14 14:45:47;;;;;;;;;;;17.60;28.30;;;16.01;29.54;102130.66;8365757;28;20015;-79
2022/03/14 14:50:11;;;;;;;;;;;17.40;28.40;;;16.01;29.29;102138.56;8352415;28;19921;-79
2022/03/14 14:54:32;;;;;;;;;;;17.50;28.40;;;15.89;29.41;102143.59;8363959;28;20015;-79
2022/03/14 14:58:54;;;;;;;;;;;17.40;28.40;;;15.82;29.36;102150.13;8363405;28;19917;-79
2022/03/14 15:03:18;;;;;;;;;;;17.40;28.50;;;15.62;29.44;102118.72;8359354;28;20016;-79
2022/03/14 15:07:41;;;;;;;;;;;17.40;28.50;;;15.77;29.53;102149.53;8365198;28;19920;-79
2022/03/14 15:12:03;;;;;;;;;;;17.30;28.70;;;15.66;29.73;102147.47;8354610;28;19999;-79
2022/03/14 15:16:24;;;;;;;;;;;17.20;28.50;;;15.74;29.48;102164.66;8363577;28;19996;-79
2022/03/14 15:20:46;;;;;;;;;;;17.20;28.60;;;15.70;29.31;102167.44;8363503;28;19992;-79
2022/03/14 15:25:09;;;;;;;;;;;17.20;28.60;;;15.44;29.58;102147.72;8357917;28;20012;-79
2022/03/14 15:29:31;;;;;;;;;;;17.10;28.40;;;15.57;29.33;102181.31;8364637;28;19921;-79
2022/03/14 15:33:52;;;;;;;;;;;17.00;28.40;;;15.39;29.50;102173.47;8365110;28;19971;-79
2022/03/14 15:38:14;;;;;;;;;;;16.90;28.60;;;15.36;29.41;102178.88;8353289;28;21431;-79
2022/03/14 15:42:36;;;;;;;;;;;16.90;28.20;;;15.23;29.44;102176.03;8356248;28;19916;-79
2022/03/14 15:46:58;;;;;;;;;;;16.80;28.30;;;15.22;29.85;102194.53;8363949;28;20062;-79
2022/03/14 15:51:23;;;;;;;;;;;16.80;28.40;;;15.10;29.16;102184.66;8338857;28;19921;-80
2022/03/14 15:55:45;;;;;;;;;;;16.70;28.60;;;15.07;29.54;102190.03;8363676;28;20003;-79
2022/03/14 16:00:07;;;;;;;;;;;16.60;28.30;;;14.93;29.34;102177.59;8340224;28;19931;-80
2022/03/14 16:04:35;;;;;;;;;;;16.50;28.60;;;14.89;29.74;102197.94;8353542;28;19928;-80
2022/03/14 16:08:57;;;;;;;;;;;16.40;28.80;;;14.87;29.66;102197.16;8346098;28;19931;-80
2022/03/14 16:13:20;;;;;;;;;;;16.50;28.80;;;14.78;29.35;102189.72;8349198;28;19952;-80
2022/03/14 16:17:44;;;;;;;;;;;16.40;28.70;;;14.76;29.58;102202.94;8339044;28;19927;-79
2022/03/14 16:22:06;;;;;;;;;;;16.30;28.80;;;14.86;29.48;102231.44;8348657;28;19920;-79
2022/03/14 16:26:30;;;;;;;;;;;16.30;28.80;;;14.76;29.56;102226.59;8354737;28;19921;-80
2022/03/14 16:30:52;;;;;;;;;;;16.20;28.90;;;14.66;29.52;102216.63;8351534;28;19931;-80
2022/03/14 16:35:16;;;;;;;;;;;16.20;29.00;;;14.71;29.55;102241.75;8350971;28;19921;-80
2022/03/14 16:39:39;;;;;;;;;;;16.20;29.20;;;14.65;29.63;102238.59;8342039;28;19927;-81
2022/03/14 16:44:02;;;;;;;;;;;16.10;29.20;;;14.67;29.72;102248.09;8344877;28;19927;-82
2022/03/14 16:48:23;;;;;;;;;;;16.00;29.20;;;14.52;29.78;102239.16;8348265;28;20535;-82
2022/03/14 16:52:46;;;;;;;;;;;15.90;29.30;;;14.59;29.51;102266.88;8354094;28;19921;-82
2022/03/14 16:57:08;;;;;;;;;;;16.00;29.40;;;14.50;29.52;102263.78;8348184;28;19927;-82
2022/03/14 17:01:30;;;;;;;;;;;15.90;29.40;;;14.52;29.83;102283.84;8352780;28;19931;-81
2022/03/14 17:05:52;;;;;;;;;;;15.90;29.50;;;14.26;29.88;102248.25;8348871;28;19920;-81
2022/03/14 17:10:59;;;;;;;;;;;15.90;29.60;;;14.21;29.80;102266.00;8352498;28;19931;-81
2022/03/14 17:14:55;;;;;;;;;;;16.10;29.90;;;14.19;29.77;102295.91;8351733;28;19958;-81
2022/03/14 17:19:17;;;;;;;;;;;15.70;30.10;;;14.10;30.16;102302.41;8347811;28;19925;-81
2022/03/14 17:23:38;;;;;;;;;;;15.60;30.50;;;14.00;30.14;102314.25;8350348;28;19924;-81
2022/03/14 17:28:00;;;;;;;;;;;15.50;30.60;;;13.87;30.29;102327.91;8352864;28;20407;-81
2022/03/14 17:32:24;;;;;;;;;;;15.40;30.80;;;13.72;30.22;102318.09;8352649;28;19921;-81
2022/03/14 17:36:45;;;;;;;;;;;15.10;31.20;;;13.69;30.51;102326.06;8349183;28;19920;-81
2022/03/14 17:41:08;;;;;;;;;;;15.10;31.20;;;13.50;30.57;102308.50;8348614;28;19932;-82
2022/03/14 17:45:31;;;;;;;;;;;15.10;31.30;;;13.36;30.59;102299.47;8339910;28;19923;-81
2022/03/14 17:49:54;;;;;;;;;;;15.00;31.30;;;13.40;30.93;102322.06;8346326;28;20402;-81
2022/03/14 17:54:15;;;;;;;;;;;14.80;31.30;;;13.37;30.79;102317.78;8328621;28;19935;-82
2022/03/14 17:58:37;;;;;;;;;;;14.80;31.50;;;13.27;30.85;102311.22;8337378;28;20413;-81
2022/03/14 18:03:01;;;;;;;;;;;14.70;31.70;;;13.23;31.16;102317.44;8337566;28;20374;-81
2022/03/14 18:07:24;;;;;;;;;;;14.70;31.70;;;13.24;31.23;102341.00;8324928;28;19932;-80
2022/03/14 18:11:48;;;;;;;;;;;14.60;32.50;;;13.13;31.21;102335.34;8324238;28;19921;-82
2022/03/14 18:16:11;;;;;;;;;;;14.50;32.30;;;12.82;31.25;102299.84;8335389;28;20328;-82
2022/03/14 18:20:33;;;;;;;;;;;14.40;32.30;;;13.05;31.30;102350.53;8324030;28;20566;-82
2022/03/14 18:24:54;;;;;;;;;;;14.40;32.30;;;12.97;31.37;102342.97;8325622;28;19920;-83
2022/03/14 18:29:17;;;;;;;;;;;14.20;32.80;;;12.92;31.42;102344.91;8343947;28;19933;-87
2022/03/14 18:33:46;;;;;;;;;;;14.30;32.40;;;12.89;31.38;102352.91;8346404;28;19931;-81
2022/03/14 18:38:09;;;;;;;;;;;14.30;33.30;;;12.92;31.59;102363.25;8327967;28;19921;-82
2022/03/14 18:42:30;;;;;;;;;;;14.30;32.60;;;12.75;31.54;102342.09;8352835;28;19924;-83
2022/03/14 18:46:55;;;;;;;;;;;14.20;32.70;;;12.87;31.64;102366.97;8350248;28;19924;-80
2022/03/14 18:51:16;;;;;;;;;;;14.20;32.80;;;12.76;31.91;102360.38;8342260;28;20408;-82
2022/03/14 18:55:39;;;;;;;;;;;14.10;33.00;;;12.79;31.81;102381.22;8334628;28;19927;-81
2022/03/14 19:00:00;;;;;;;;;;;14.10;32.90;;;12.73;31.81;102380.63;8348967;28;20305;-81
2022/03/14 19:04:25;;;;;;;;;;;14.10;33.10;;;12.58;31.90;102368.91;8354247;28;19923;-81
2022/03/14 19:08:47;;;;;;;;;;;14.00;33.50;;;12.62;32.19;102391.50;8350636;28;19921;-81
2022/03/14 19:13:09;;;;;;;;;;;14.10;34.40;;;12.58;32.03;102396.00;8348374;28;19917;-80
2022/03/14 19:17:30;;;;;;;;;;;14.00;34.20;;;12.49;32.26;102413.81;8359232;28;20015;-81
2022/03/14 19:21:52;;;;;;;;;;;13.90;34.00;;;12.43;32.29;102412.28;8356886;28;20517;-79
2022/03/14 19:26:16;;;;;;;;;;;13.80;33.60;;;12.18;32.13;102380.88;8359689;28;20362;-80
2022/03/14 19:30:37;;;;;;;;;;;13.80;34.70;;;12.14;32.73;102385.34;8354772;28;19925;-81
2022/03/14 19:35:00;;;;;;;;;;;13.70;33.90;;;12.14;32.92;102395.81;8352564;28;19995;-81
2022/03/14 19:39:22;;;;;;;;;;;13.50;34.10;;;12.16;32.71;102411.50;8354952;28;19916;-81
2022/03/14 19:43:44;;;;;;;;;;;13.60;34.10;;;12.25;32.68;102429.50;8341659;28;20008;-80
2022/03/14 19:48:06;;;;;;;;;;;13.60;34.10;;;11.87;32.70;102365.34;8342032;28;19921;-79
2022/03/14 19:52:28;;;;;;;;;;;13.60;34.10;;;12.23;32.96;102435.69;8324824;28;20015;-81
2022/03/14 19:56:51;;;;;;;;;;;13.60;34.30;;;12.07;32.68;102411.78;8338014;28;20008;-81
2022/03/14 20:01:22;;;;;;;;;;;13.60;34.10;;;12.15;32.98;102422.84;8339548;28;20441;-81
2022/03/14 20:05:46;;;;;;;;;;;13.50;34.40;;;12.09;33.28;102425.69;8324145;28;20016;-81
2022/03/14 20:10:08;;;;;;;;;;;13.50;34.50;;;11.93;33.45;102402.63;8341171;28;20260;-82